createdAt,value
2017-07-23T00:00:28.145Z,19.5
2017-07-23T00:01:29.378Z,19.48
2017-07-23T00:02:30.607Z,19.48
2017-07-23T00:03:31.853Z,19.35
2017-07-23T00:04:33.103Z,19.39
2017-07-23T00:05:34.350Z,19.39
2017-07-23T00:06:35.589Z,19.39
2017-07-23T00:07:36.834Z,19.4
2017-07-23T00:08:38.114Z,19.38
2017-07-23T00:09:39.339Z,19.38
2017-07-23T00:10:40.578Z,19.38
2017-07-23T00:11:41.832Z,19.33
2017-07-23T00:12:43.066Z,19.36
2017-07-23T00:13:44.325Z,19.36
2017-07-23T00:14:45.541Z,19.28
2017-07-23T00:15:46.772Z,19.29
2017-07-23T00:16:48.112Z,19.17
2017-07-23T00:17:49.347Z,19.17
2017-07-23T00:18:50.587Z,19.17
2017-07-23T00:19:51.839Z,19.13
2017-07-23T00:20:53.078Z,19.15
2017-07-23T00:21:54.419Z,19.15
2017-07-23T00:22:55.750Z,19.1
2017-07-23T00:23:56.991Z,19.08
2017-07-23T00:24:58.251Z,19.05
2017-07-23T00:25:59.499Z,19.05
2017-07-23T00:27:00.738Z,18.98
2017-07-23T00:28:02.037Z,18.97
2017-07-23T00:29:03.337Z,19.06
2017-07-23T00:30:04.578Z,19.01
2017-07-23T00:31:05.834Z,19.01
2017-07-23T00:32:07.101Z,18.98
2017-07-23T00:33:08.328Z,18.98
2017-07-23T00:34:09.559Z,18.97
2017-07-23T00:35:10.810Z,18.98
2017-07-23T00:36:12.078Z,18.87
2017-07-23T00:37:13.296Z,18.94
2017-07-23T00:38:14.539Z,18.94
2017-07-23T00:39:15.776Z,18.91
2017-07-23T00:40:17.014Z,18.91
2017-07-23T00:41:18.264Z,18.92
2017-07-23T00:42:19.536Z,18.95
2017-07-23T00:43:20.864Z,18.9
2017-07-23T00:44:22.136Z,18.9
2017-07-23T00:45:23.374Z,18.91
2017-07-23T00:46:24.613Z,18.86
2017-07-23T00:47:25.856Z,18.87
2017-07-23T00:48:27.096Z,18.83
2017-07-23T00:49:28.349Z,18.86
2017-07-23T00:50:29.674Z,18.92
2017-07-23T00:51:30.916Z,18.91
2017-07-23T00:52:32.162Z,18.84
2017-07-23T00:53:33.406Z,18.77
2017-07-23T00:54:34.646Z,18.77
2017-07-23T00:55:35.938Z,18.76
2017-07-23T00:56:37.173Z,18.77
2017-07-23T00:57:38.419Z,18.74
2017-07-23T00:58:39.652Z,18.73
2017-07-23T00:59:40.891Z,18.76
2017-07-23T01:00:42.135Z,18.72
2017-07-23T01:01:43.374Z,18.77
2017-07-23T01:02:44.636Z,18.68
2017-07-23T01:03:45.881Z,18.74
2017-07-23T01:04:47.147Z,18.72
2017-07-23T01:05:48.371Z,18.65
2017-07-23T01:06:49.634Z,18.72
2017-07-23T01:07:50.850Z,18.7
2017-07-23T01:08:52.094Z,18.77
2017-07-23T01:09:53.342Z,18.73
2017-07-23T01:10:54.625Z,18.7
2017-07-23T01:11:55.887Z,18.67
2017-07-23T01:12:57.124Z,18.58
2017-07-23T01:13:58.403Z,18.68
2017-07-23T01:14:59.646Z,18.62
2017-07-23T01:16:00.892Z,18.59
2017-07-23T01:17:02.122Z,18.58
2017-07-23T01:18:03.369Z,18.65
2017-07-23T01:19:04.594Z,18.65
2017-07-23T01:20:05.843Z,18.59
2017-07-23T01:21:07.078Z,18.58
2017-07-23T01:22:08.335Z,18.58
2017-07-23T01:23:09.905Z,18.55
2017-07-23T01:24:11.046Z,18.57
2017-07-23T01:25:12.266Z,18.55
2017-07-23T01:26:13.502Z,18.52
2017-07-23T01:27:14.750Z,18.58
2017-07-23T01:28:16.077Z,18.54
2017-07-23T01:29:17.324Z,18.57
2017-07-23T01:30:18.657Z,18.52
2017-07-23T01:31:19.896Z,18.47
2017-07-23T01:32:21.124Z,18.44
2017-07-23T01:33:22.373Z,18.4
2017-07-23T01:34:23.622Z,18.42
2017-07-23T01:35:24.905Z,18.44
2017-07-23T01:36:26.151Z,18.46
2017-07-23T01:37:27.388Z,18.34
2017-07-23T01:38:28.629Z,18.4
2017-07-23T01:39:29.865Z,18.47
2017-07-23T01:40:31.119Z,18.44
2017-07-23T01:41:32.426Z,18.31
2017-07-23T01:42:33.684Z,18.4
2017-07-23T01:43:34.925Z,18.52
2017-07-23T01:44:36.225Z,18.44
2017-07-23T01:45:37.463Z,18.52
2017-07-23T01:46:38.724Z,18.43
2017-07-23T01:47:39.964Z,18.47
2017-07-23T01:48:41.198Z,18.44
2017-07-23T01:49:42.437Z,18.36
2017-07-23T01:50:43.668Z,18.39
2017-07-23T01:51:44.901Z,18.39
2017-07-23T01:52:46.142Z,18.42
2017-07-23T01:53:47.388Z,18.36
2017-07-23T01:54:48.620Z,18.33
2017-07-23T01:55:49.937Z,18.33
2017-07-23T01:56:51.176Z,18.33
2017-07-23T01:57:52.407Z,18.27
2017-07-23T01:58:53.770Z,18.25
2017-07-23T01:59:55.010Z,18.28
2017-07-23T02:00:56.297Z,18.25
2017-07-23T02:01:57.542Z,18.18
2017-07-23T02:02:58.780Z,18.13
2017-07-23T02:04:00.003Z,18.07
2017-07-23T02:05:01.252Z,18.09
2017-07-23T02:06:02.576Z,18.13
2017-07-23T02:07:03.872Z,18.06
2017-07-23T02:08:05.102Z,18.12
2017-07-23T02:09:06.357Z,18.07
2017-07-23T02:10:07.575Z,18.06
2017-07-23T02:11:08.818Z,18
2017-07-23T02:12:10.084Z,17.99
2017-07-23T02:13:11.329Z,18.02
2017-07-23T02:14:12.575Z,18.04
2017-07-23T02:15:13.883Z,18.06
2017-07-23T02:16:15.122Z,17.95
2017-07-23T02:17:16.371Z,17.97
2017-07-23T02:18:17.630Z,17.94
2017-07-23T02:19:18.858Z,17.84
2017-07-23T02:20:20.098Z,17.95
2017-07-23T02:21:21.409Z,17.84
2017-07-23T02:22:22.610Z,17.81
2017-07-23T02:23:23.847Z,17.76
2017-07-23T02:24:25.088Z,17.78
2017-07-23T02:25:26.319Z,17.79
2017-07-23T02:26:27.570Z,17.69
2017-07-23T02:27:28.801Z,17.82
2017-07-23T02:28:30.042Z,17.73
2017-07-23T02:29:31.277Z,17.7
2017-07-23T02:30:32.548Z,17.69
2017-07-23T02:31:33.822Z,17.81
2017-07-23T02:32:35.056Z,17.84
2017-07-23T02:33:36.540Z,17.71
2017-07-23T02:34:37.754Z,17.74
2017-07-23T02:35:38.996Z,17.73
2017-07-23T02:36:40.283Z,17.73
2017-07-23T02:37:41.513Z,17.78
2017-07-23T02:38:42.770Z,17.7
2017-07-23T02:39:44.000Z,17.79
2017-07-23T02:40:45.369Z,17.76
2017-07-23T02:41:46.494Z,17.76
2017-07-23T02:42:47.728Z,17.79
2017-07-23T02:43:48.965Z,17.81
2017-07-23T02:44:50.291Z,17.84
2017-07-23T02:45:51.538Z,17.89
2017-07-23T02:46:52.772Z,17.82
2017-07-23T02:47:54.031Z,17.89
2017-07-23T02:48:55.267Z,17.88
2017-07-23T02:49:56.520Z,17.87
2017-07-23T02:50:57.759Z,17.94
2017-07-23T02:51:59.045Z,17.94
2017-07-23T02:53:00.291Z,17.95
2017-07-23T02:54:01.531Z,17.84
2017-07-23T02:55:02.766Z,17.89
2017-07-23T02:56:04.015Z,17.81
2017-07-23T02:57:05.251Z,17.89
2017-07-23T02:58:06.534Z,17.81
2017-07-23T02:59:07.859Z,17.82
2017-07-23T03:00:09.082Z,17.76
2017-07-23T03:01:10.379Z,17.74
2017-07-23T03:02:11.614Z,17.69
2017-07-23T03:03:12.856Z,17.62
2017-07-23T03:04:14.140Z,17.73
2017-07-23T03:05:15.408Z,17.7
2017-07-23T03:06:16.644Z,17.67
2017-07-23T03:07:17.885Z,17.66
2017-07-23T03:08:19.126Z,17.66
2017-07-23T03:09:20.359Z,17.64
2017-07-23T03:10:21.679Z,17.62
2017-07-23T03:11:22.938Z,17.59
2017-07-23T03:12:24.198Z,17.63
2017-07-23T03:13:25.439Z,17.59
2017-07-23T03:14:26.673Z,17.64
2017-07-23T03:15:27.919Z,17.57
2017-07-23T03:16:29.151Z,17.54
2017-07-23T03:17:30.414Z,17.67
2017-07-23T03:18:31.667Z,17.67
2017-07-23T03:19:32.883Z,17.7
2017-07-23T03:20:34.166Z,17.66
2017-07-23T03:21:35.396Z,17.63
2017-07-23T03:22:36.633Z,17.64
2017-07-23T03:23:37.896Z,17.73
2017-07-23T03:24:39.135Z,17.67
2017-07-23T03:25:40.400Z,17.67
2017-07-23T03:26:41.635Z,17.69
2017-07-23T03:27:42.872Z,17.66
2017-07-23T03:28:44.230Z,17.7
2017-07-23T03:29:45.492Z,17.67
2017-07-23T03:30:46.778Z,17.69
2017-07-23T03:31:48.056Z,17.66
2017-07-23T03:32:49.331Z,17.69
2017-07-23T03:33:50.546Z,17.76
2017-07-23T03:34:51.926Z,17.76
2017-07-23T03:35:53.155Z,17.79
2017-07-23T03:36:54.417Z,17.79
2017-07-23T03:37:55.743Z,17.76
2017-07-23T03:38:56.979Z,17.76
2017-07-23T03:39:58.224Z,17.76
2017-07-23T03:40:59.496Z,17.74
2017-07-23T03:42:00.782Z,17.84
2017-07-23T03:43:02.079Z,17.73
2017-07-23T03:44:03.320Z,17.62
2017-07-23T03:45:04.562Z,17.64
2017-07-23T03:46:05.800Z,17.55
2017-07-23T03:47:07.040Z,17.48
2017-07-23T03:48:08.280Z,17.54
2017-07-23T03:49:09.590Z,17.51
2017-07-23T03:50:10.879Z,17.47
2017-07-23T03:51:12.228Z,17.5
2017-07-23T03:52:13.464Z,17.44
2017-07-23T03:53:14.698Z,17.53
2017-07-23T03:54:15.997Z,17.47
2017-07-23T03:55:17.281Z,17.41
2017-07-23T03:56:18.495Z,17.43
2017-07-23T03:57:19.768Z,17.41
2017-07-23T03:58:20.993Z,17.44
2017-07-23T03:59:22.302Z,17.48
2017-07-23T04:00:23.614Z,17.48
2017-07-23T04:01:24.858Z,17.47
2017-07-23T04:02:26.130Z,17.54
2017-07-23T04:03:27.433Z,17.59
2017-07-23T04:04:28.608Z,17.66
2017-07-23T04:05:29.846Z,17.62
2017-07-23T04:06:31.083Z,17.62
2017-07-23T04:07:32.334Z,17.64
2017-07-23T04:08:33.575Z,17.59
2017-07-23T04:09:34.825Z,17.66
2017-07-23T04:10:36.071Z,17.66
2017-07-23T04:11:37.312Z,17.7
2017-07-23T04:12:38.552Z,17.73
2017-07-23T04:13:39.928Z,17.62
2017-07-23T04:14:41.175Z,17.71
2017-07-23T04:15:42.418Z,17.67
2017-07-23T04:16:43.649Z,17.67
2017-07-23T04:17:44.889Z,17.7
2017-07-23T04:18:46.172Z,17.67
2017-07-23T04:19:47.413Z,17.67
2017-07-23T04:20:48.684Z,17.62
2017-07-23T04:21:50.008Z,17.71
2017-07-23T04:22:51.292Z,17.74
2017-07-23T04:23:52.533Z,17.73
2017-07-23T04:24:53.770Z,17.69
2017-07-23T04:25:55.000Z,17.69
2017-07-23T04:26:56.276Z,17.71
2017-07-23T04:27:57.518Z,17.66
2017-07-23T04:28:58.764Z,17.7
2017-07-23T04:30:00.012Z,17.66
2017-07-23T04:31:01.253Z,17.59
2017-07-23T04:32:02.505Z,17.55
2017-07-23T04:33:03.749Z,17.59
2017-07-23T04:34:05.056Z,17.59
2017-07-23T04:35:06.263Z,17.54
2017-07-23T04:36:07.517Z,17.55
2017-07-23T04:37:08.736Z,17.51
2017-07-23T04:38:09.975Z,17.51
2017-07-23T04:39:11.220Z,17.38
2017-07-23T04:40:12.469Z,17.4
2017-07-23T04:41:13.761Z,17.44
2017-07-23T04:42:14.994Z,17.4
2017-07-23T04:43:16.262Z,17.4
2017-07-23T04:44:17.473Z,17.33
2017-07-23T04:45:18.710Z,17.43
2017-07-23T04:46:19.941Z,17.41
2017-07-23T04:47:21.175Z,17.3
2017-07-23T04:48:22.414Z,17.38
2017-07-23T04:49:23.677Z,17.33
2017-07-23T04:50:24.888Z,17.3
2017-07-23T04:51:26.128Z,17.3
2017-07-23T04:52:27.364Z,17.33
2017-07-23T04:53:28.612Z,17.43
2017-07-23T04:54:29.901Z,17.3
2017-07-23T04:55:31.145Z,17.25
2017-07-23T04:56:32.410Z,17.26
2017-07-23T04:57:33.647Z,17.32
2017-07-23T04:58:34.885Z,17.33
2017-07-23T04:59:36.126Z,17.33
2017-07-23T05:00:37.363Z,17.35
2017-07-23T05:01:38.634Z,17.44
2017-07-23T05:02:39.872Z,17.43
2017-07-23T05:03:41.112Z,17.47
2017-07-23T05:04:42.352Z,17.48
2017-07-23T05:05:43.603Z,17.47
2017-07-23T05:06:44.900Z,17.47
2017-07-23T05:07:46.143Z,17.51
2017-07-23T05:08:47.390Z,17.53
2017-07-23T05:09:48.615Z,17.54
2017-07-23T05:10:49.856Z,17.53
2017-07-23T05:11:51.092Z,17.53
2017-07-23T05:12:52.344Z,17.57
2017-07-23T05:13:53.591Z,17.55
2017-07-23T05:14:54.914Z,17.51
2017-07-23T05:15:56.149Z,17.55
2017-07-23T05:16:57.392Z,17.5
2017-07-23T05:17:58.633Z,17.48
2017-07-23T05:18:59.882Z,17.46
2017-07-23T05:20:01.115Z,17.48
2017-07-23T05:21:02.357Z,17.51
2017-07-23T05:22:03.606Z,17.62
2017-07-23T05:23:04.833Z,17.57
2017-07-23T05:24:06.080Z,17.69
2017-07-23T05:25:07.312Z,17.63
2017-07-23T05:26:08.601Z,17.7
2017-07-23T05:27:09.973Z,17.79
2017-07-23T05:28:11.213Z,17.81
2017-07-23T05:29:12.520Z,17.85
2017-07-23T05:30:13.768Z,17.92
2017-07-23T05:31:15.013Z,17.94
2017-07-23T05:32:16.245Z,18.07
2017-07-23T05:33:17.496Z,18.21
2017-07-23T05:34:18.813Z,18.31
2017-07-23T05:35:20.184Z,18.37
2017-07-23T05:36:21.435Z,18.58
2017-07-23T05:37:22.696Z,18.57
2017-07-23T05:38:23.934Z,18.64
2017-07-23T05:39:25.187Z,18.7
2017-07-23T05:40:26.426Z,18.72
2017-07-23T05:41:27.669Z,18.67
2017-07-23T05:42:28.907Z,18.74
2017-07-23T05:43:30.286Z,18.99
2017-07-23T05:44:31.524Z,19.02
2017-07-23T05:45:32.763Z,19.11
2017-07-23T05:46:34.032Z,19.46
2017-07-23T05:47:35.282Z,19.73
2017-07-23T05:48:36.520Z,19.94
2017-07-23T05:49:37.789Z,20.13
2017-07-23T05:50:39.028Z,20.53
2017-07-23T05:51:40.285Z,20.71
2017-07-23T05:52:41.528Z,21.17
2017-07-23T05:53:42.765Z,21.75
2017-07-23T05:54:44.006Z,22.32
2017-07-23T05:55:45.256Z,22.99
2017-07-23T05:56:46.615Z,23.5
2017-07-23T05:57:47.925Z,23.67
2017-07-23T05:58:49.160Z,23.79
2017-07-23T05:59:50.419Z,24.1
2017-07-23T06:00:51.650Z,24.41
2017-07-23T06:01:52.895Z,24.73
2017-07-23T06:02:54.151Z,25.06
2017-07-23T06:03:55.387Z,25.49
2017-07-23T06:04:56.633Z,26.01
2017-07-23T06:05:57.941Z,26.89
2017-07-23T06:06:59.175Z,26.8
2017-07-23T06:08:00.422Z,26.77
2017-07-23T06:09:01.663Z,26.59
2017-07-23T06:10:02.901Z,26.46
2017-07-23T06:11:04.228Z,26.72
2017-07-23T06:12:05.476Z,26.91
2017-07-23T06:13:06.750Z,27.2
2017-07-23T06:14:07.991Z,27.29
2017-07-23T06:15:09.226Z,27.46
2017-07-23T06:16:10.594Z,27.35
2017-07-23T06:17:11.841Z,27.51
2017-07-23T06:18:13.087Z,27.84
2017-07-23T06:19:14.323Z,28.16
2017-07-23T06:20:15.564Z,28.09
2017-07-23T06:21:16.803Z,28.14
2017-07-23T06:22:18.104Z,28.43
2017-07-23T06:23:19.355Z,28.78
2017-07-23T06:24:20.652Z,29.13
2017-07-23T06:25:21.891Z,29.26
2017-07-23T06:26:23.222Z,29.66
2017-07-23T06:27:24.445Z,29.6
2017-07-23T06:28:25.694Z,29.5
2017-07-23T06:29:26.935Z,30.02
2017-07-23T06:30:28.232Z,30.38
2017-07-23T06:31:29.495Z,30.52
2017-07-23T06:32:30.740Z,30.89
2017-07-23T06:33:32.026Z,31.13
2017-07-23T06:34:33.258Z,30.91
2017-07-23T06:35:34.506Z,30.86
2017-07-23T06:36:35.756Z,30.8
2017-07-23T06:37:37.043Z,30.64
2017-07-23T06:38:38.292Z,30.64
2017-07-23T06:39:39.566Z,30.24
2017-07-23T06:40:40.792Z,29.84
2017-07-23T06:41:42.039Z,29.79
2017-07-23T06:42:43.360Z,30.02
2017-07-23T06:43:44.612Z,30.54
2017-07-23T06:44:45.876Z,30.91
2017-07-23T06:45:47.117Z,31.09
2017-07-23T06:46:48.370Z,30.71
2017-07-23T06:47:49.629Z,30.57
2017-07-23T06:48:50.882Z,30.8
2017-07-23T06:49:52.173Z,31.02
2017-07-23T06:50:53.514Z,31.02
2017-07-23T06:51:54.763Z,30.93
2017-07-23T06:52:56.030Z,30.53
2017-07-23T06:53:57.259Z,30.53
2017-07-23T06:54:58.509Z,30.9
2017-07-23T06:55:59.967Z,31.43
2017-07-23T06:57:01.223Z,32
2017-07-23T06:58:02.490Z,32.37
2017-07-23T06:59:03.735Z,32.13
2017-07-23T07:00:04.985Z,31.73
2017-07-23T07:01:06.317Z,31.58
2017-07-23T07:02:07.626Z,31.13
2017-07-23T07:03:08.865Z,31.04
2017-07-23T07:04:10.110Z,31.24
2017-07-23T07:05:11.361Z,31.06
2017-07-23T07:06:12.605Z,30.69
2017-07-23T07:07:13.854Z,30.46
2017-07-23T07:08:15.194Z,31.02
2017-07-23T07:09:16.547Z,31.28
2017-07-23T07:10:17.792Z,32.29
2017-07-23T07:11:19.037Z,32.62
2017-07-23T07:12:20.364Z,32.98
2017-07-23T07:13:21.613Z,33.31
2017-07-23T07:14:22.861Z,33.61
2017-07-23T07:15:24.118Z,34.24
2017-07-23T07:16:25.343Z,34.56
2017-07-23T07:17:26.601Z,34.73
2017-07-23T07:18:27.928Z,34.91
2017-07-23T07:19:29.231Z,34.77
2017-07-23T07:20:30.467Z,33.64
2017-07-23T07:21:31.734Z,33.06
2017-07-23T07:22:32.963Z,32.05
2017-07-23T07:23:34.218Z,31.77
2017-07-23T07:24:35.465Z,31.93
2017-07-23T07:25:36.724Z,31.87
2017-07-23T07:26:38.010Z,31.58
2017-07-23T07:27:39.269Z,31.58
2017-07-23T07:28:40.507Z,31.64
2017-07-23T07:29:41.758Z,31.39
2017-07-23T07:30:43.007Z,31.38
2017-07-23T07:31:44.258Z,31.68
2017-07-23T07:32:45.524Z,31.91
2017-07-23T07:33:46.778Z,32.03
2017-07-23T07:34:48.021Z,31.28
2017-07-23T07:35:49.280Z,31.12
2017-07-23T07:36:50.535Z,31.12
2017-07-23T07:37:51.793Z,30.99
2017-07-23T07:38:53.059Z,30.68
2017-07-23T07:39:54.312Z,30.24
2017-07-23T07:40:55.554Z,29.53
2017-07-23T07:41:56.804Z,28.72
2017-07-23T07:42:58.085Z,28.14
2017-07-23T07:43:59.349Z,27.99
2017-07-23T07:45:00.685Z,28.16
2017-07-23T07:46:01.931Z,28.38
2017-07-23T07:47:03.192Z,28.14
2017-07-23T07:48:04.421Z,28.23
2017-07-23T07:49:05.671Z,28.56
2017-07-23T07:50:06.909Z,28.38
2017-07-23T07:51:08.236Z,28.46
2017-07-23T07:52:09.484Z,28.14
2017-07-23T07:53:10.738Z,27.73
2017-07-23T07:54:11.985Z,27.61
2017-07-23T07:55:13.234Z,27.19
2017-07-23T07:56:14.504Z,26.81
2017-07-23T07:57:15.750Z,26.32
2017-07-23T07:58:17.010Z,25.93
2017-07-23T07:59:18.272Z,25.62
2017-07-23T08:00:19.515Z,25.06
2017-07-23T08:01:20.766Z,24.87
2017-07-23T08:02:22.152Z,24.69
2017-07-23T08:03:23.436Z,24.69
2017-07-23T08:04:24.682Z,24.76
2017-07-23T08:05:25.931Z,24.59
2017-07-23T08:06:27.183Z,24.6
2017-07-23T08:07:28.430Z,24.54
2017-07-23T08:08:29.794Z,24.69
2017-07-23T08:09:31.013Z,24.85
2017-07-23T08:10:32.342Z,24.85
2017-07-23T08:11:33.649Z,24.83
2017-07-23T08:12:34.902Z,24.76
2017-07-23T08:13:36.234Z,25.05
2017-07-23T08:14:37.489Z,25.3
2017-07-23T08:15:38.758Z,25.49
2017-07-23T08:16:40.028Z,25.87
2017-07-23T08:17:41.282Z,26.28
2017-07-23T08:18:42.521Z,27.01
2017-07-23T08:19:43.768Z,27.46
2017-07-23T08:20:45.013Z,27.66
2017-07-23T08:21:46.279Z,27.53
2017-07-23T08:22:47.525Z,27.62
2017-07-23T08:23:48.774Z,27.39
2017-07-23T08:24:50.017Z,27.17
2017-07-23T08:25:51.266Z,27.05
2017-07-23T08:26:52.546Z,26.65
2017-07-23T08:27:53.841Z,26.58
2017-07-23T08:28:55.150Z,26.92
2017-07-23T08:29:56.432Z,27.58
2017-07-23T08:30:57.687Z,28.44
2017-07-23T08:31:58.921Z,29.1
2017-07-23T08:33:00.172Z,29.86
2017-07-23T08:34:01.416Z,30.18
2017-07-23T08:35:02.663Z,30.68
2017-07-23T08:36:03.985Z,31.09
2017-07-23T08:37:05.306Z,31.61
2017-07-23T08:38:06.505Z,31.88
2017-07-23T08:39:07.743Z,32.15
2017-07-23T08:40:09.013Z,32.17
2017-07-23T08:41:10.244Z,32.73
2017-07-23T08:42:11.481Z,33.48
2017-07-23T08:43:12.728Z,33.33
2017-07-23T08:44:13.975Z,33.68
2017-07-23T08:45:15.226Z,34.14
2017-07-23T08:46:16.475Z,34.23
2017-07-23T08:47:17.793Z,34.19
2017-07-23T08:48:19.149Z,34.69
2017-07-23T08:49:20.394Z,34.83
2017-07-23T08:50:21.661Z,34.94
2017-07-23T08:51:22.882Z,34.83
2017-07-23T08:52:24.211Z,34.63
2017-07-23T08:53:25.606Z,34.63
2017-07-23T08:54:26.845Z,34.44
2017-07-23T08:55:28.096Z,33.46
2017-07-23T08:56:29.345Z,32.64
2017-07-23T08:57:30.622Z,32.33
2017-07-23T08:58:31.865Z,32.07
2017-07-23T08:59:33.112Z,31.42
2017-07-23T09:00:34.372Z,30.4
2017-07-23T09:01:35.638Z,29.94
2017-07-23T09:02:36.879Z,29.66
2017-07-23T09:03:38.150Z,29.16
2017-07-23T09:04:39.386Z,28.4
2017-07-23T09:05:40.643Z,27.74
2017-07-23T09:06:41.893Z,26.89
2017-07-23T09:07:43.154Z,26.44
2017-07-23T09:08:44.501Z,26.21
2017-07-23T09:09:45.748Z,26.29
2017-07-23T09:10:46.988Z,26.04
2017-07-23T09:11:48.249Z,25.86
2017-07-23T09:12:49.480Z,25.87
2017-07-23T09:13:50.738Z,25.77
2017-07-23T09:14:51.988Z,25.74
2017-07-23T09:15:53.231Z,25.46
2017-07-23T09:16:54.480Z,25.25
2017-07-23T09:17:55.725Z,24.88
2017-07-23T09:18:57.016Z,24.71
2017-07-23T09:19:58.307Z,25
2017-07-23T09:20:59.601Z,25.32
2017-07-23T09:22:00.824Z,25.74
2017-07-23T09:23:02.070Z,25.87
2017-07-23T09:24:03.314Z,25.93
2017-07-23T09:25:04.610Z,25.86
2017-07-23T09:26:05.851Z,26.24
2017-07-23T09:27:07.100Z,27.1
2017-07-23T09:28:08.349Z,28.04
2017-07-23T09:29:09.600Z,28.81
2017-07-23T09:30:10.853Z,29.55
2017-07-23T09:31:12.108Z,30.29
2017-07-23T09:32:13.363Z,31.13
2017-07-23T09:33:14.606Z,32.3
2017-07-23T09:34:15.872Z,33.01
2017-07-23T09:35:17.104Z,33.08
2017-07-23T09:36:18.369Z,32.48
2017-07-23T09:37:19.608Z,31.77
2017-07-23T09:38:20.906Z,30.94
2017-07-23T09:39:22.164Z,29.99
2017-07-23T09:40:23.427Z,29.18
2017-07-23T09:41:24.686Z,28.41
2017-07-23T09:42:25.939Z,27.47
2017-07-23T09:43:27.188Z,26.64
2017-07-23T09:44:28.444Z,26.09
2017-07-23T09:45:29.692Z,25.61
2017-07-23T09:46:30.934Z,25.31
2017-07-23T09:47:32.177Z,25.35
2017-07-23T09:48:33.436Z,25.52
2017-07-23T09:49:34.685Z,25.65
2017-07-23T09:50:35.927Z,25.64
2017-07-23T09:51:37.170Z,25.47
2017-07-23T09:52:38.539Z,25.12
2017-07-23T09:53:39.785Z,24.76
2017-07-23T09:54:41.032Z,24.47
2017-07-23T09:55:42.283Z,24.45
2017-07-23T09:56:43.527Z,24.44
2017-07-23T09:57:44.778Z,24.44
2017-07-23T09:58:46.160Z,24.27
2017-07-23T09:59:47.411Z,24.13
2017-07-23T10:00:48.646Z,24
2017-07-23T10:01:49.889Z,23.9
2017-07-23T10:02:51.145Z,23.65
2017-07-23T10:03:52.480Z,23.7
2017-07-23T10:04:53.722Z,23.55
2017-07-23T10:05:54.983Z,23.75
2017-07-23T10:06:56.231Z,24.47
2017-07-23T10:07:57.477Z,25.79
2017-07-23T10:08:58.781Z,27.19
2017-07-23T10:10:00.077Z,28.54
2017-07-23T10:11:01.320Z,29.5
2017-07-23T10:12:02.581Z,30.27
2017-07-23T10:13:03.850Z,30.33
2017-07-23T10:14:05.104Z,30.14
2017-07-23T10:15:06.377Z,29.53
2017-07-23T10:16:07.644Z,29.16
2017-07-23T10:17:08.921Z,28.72
2017-07-23T10:18:10.152Z,28.53
2017-07-23T10:19:11.511Z,28.25
2017-07-23T10:20:12.750Z,27.54
2017-07-23T10:21:14.029Z,26.81
2017-07-23T10:22:15.261Z,26.21
2017-07-23T10:23:16.503Z,25.61
2017-07-23T10:24:17.849Z,25.25
2017-07-23T10:25:19.112Z,24.82
2017-07-23T10:26:20.344Z,24.35
2017-07-23T10:27:21.581Z,23.97
2017-07-23T10:28:22.824Z,23.71
2017-07-23T10:29:24.107Z,23.43
2017-07-23T10:30:25.362Z,23.29
2017-07-23T10:31:26.678Z,23.12
2017-07-23T10:32:27.932Z,23.08
2017-07-23T10:33:29.175Z,23.01
2017-07-23T10:34:30.433Z,22.83
2017-07-23T10:35:31.675Z,22.68
2017-07-23T10:36:32.932Z,22.57
2017-07-23T10:37:34.231Z,22.49
2017-07-23T10:38:35.478Z,22.38
2017-07-23T10:39:36.721Z,22.44
2017-07-23T10:40:38.044Z,22.46
2017-07-23T10:41:39.385Z,22.29
2017-07-23T10:42:40.628Z,22.28
2017-07-23T10:43:41.878Z,22.22
2017-07-23T10:44:43.126Z,22.17
2017-07-23T10:45:44.444Z,21.94
2017-07-23T10:46:45.686Z,21.95
2017-07-23T10:47:46.935Z,21.98
2017-07-23T10:48:48.249Z,22.01
2017-07-23T10:49:49.501Z,22.23
2017-07-23T10:50:50.749Z,22.49
2017-07-23T10:51:51.992Z,22.54
2017-07-23T10:52:53.241Z,22.75
2017-07-23T10:53:54.602Z,22.78
2017-07-23T10:54:55.883Z,22.71
2017-07-23T10:55:57.125Z,22.67
2017-07-23T10:56:58.396Z,22.64
2017-07-23T10:57:59.642Z,22.49
2017-07-23T10:59:00.946Z,22.41
2017-07-23T11:00:02.283Z,22.34
2017-07-23T11:01:03.518Z,22.25
2017-07-23T11:02:04.797Z,22.31
2017-07-23T11:03:06.031Z,22.1
2017-07-23T11:04:07.265Z,22.01
2017-07-23T11:05:08.518Z,22.07
2017-07-23T11:06:09.780Z,22.17
2017-07-23T11:07:11.124Z,22.28
2017-07-23T11:08:12.365Z,22.47
2017-07-23T11:09:13.620Z,22.74
2017-07-23T11:10:14.868Z,22.77
2017-07-23T11:11:16.159Z,22.93
2017-07-23T11:12:17.398Z,22.83
2017-07-23T11:13:18.731Z,22.82
2017-07-23T11:14:19.952Z,22.89
2017-07-23T11:15:21.195Z,22.93
2017-07-23T11:16:22.478Z,22.9
2017-07-23T11:17:23.719Z,22.62
2017-07-23T11:18:25.032Z,22.57
2017-07-23T11:19:26.335Z,22.54
2017-07-23T11:20:27.721Z,22.41
2017-07-23T11:21:28.923Z,22.25
2017-07-23T11:22:30.170Z,22.1
2017-07-23T11:23:31.419Z,22.06
2017-07-23T11:24:32.699Z,21.94
2017-07-23T11:25:33.977Z,21.91
2017-07-23T11:26:35.216Z,21.97
2017-07-23T11:27:36.465Z,22.1
2017-07-23T11:28:37.704Z,22.27
2017-07-23T11:29:38.942Z,22.47
2017-07-23T11:30:40.202Z,22.74
2017-07-23T11:31:41.455Z,22.96
2017-07-23T11:32:42.710Z,23.04
2017-07-23T11:33:43.986Z,23.15
2017-07-23T11:34:45.210Z,23.24
2017-07-23T11:35:46.471Z,23.31
2017-07-23T11:36:47.713Z,23.19
2017-07-23T11:37:49.008Z,23.14
2017-07-23T11:38:50.295Z,23.09
2017-07-23T11:39:51.848Z,23.39
2017-07-23T11:40:52.979Z,23.62
2017-07-23T11:41:54.375Z,23.8
2017-07-23T11:42:55.634Z,23.87
2017-07-23T11:43:57.049Z,23.9
2017-07-23T11:44:58.297Z,23.92
2017-07-23T11:45:59.541Z,24.16
2017-07-23T11:47:00.797Z,24.1
2017-07-23T11:48:02.128Z,24.27
2017-07-23T11:49:03.449Z,24.14
2017-07-23T11:50:04.794Z,24.1
2017-07-23T11:51:06.015Z,24.05
2017-07-23T11:52:07.271Z,24
2017-07-23T11:53:08.517Z,24.07
2017-07-23T11:54:09.798Z,23.92
2017-07-23T11:55:11.134Z,23.76
2017-07-23T11:56:12.384Z,23.61
2017-07-23T11:57:13.647Z,23.35
2017-07-23T11:58:14.892Z,23.32
2017-07-23T11:59:16.235Z,23.19
2017-07-23T12:00:17.474Z,23.11
2017-07-23T12:01:18.743Z,23.19
2017-07-23T12:02:20.037Z,23.14
2017-07-23T12:03:21.310Z,23.19
2017-07-23T12:04:22.621Z,23.05
2017-07-23T12:05:23.844Z,23.07
2017-07-23T12:06:25.142Z,22.94
2017-07-23T12:07:26.453Z,23.2
2017-07-23T12:08:27.763Z,23.35
2017-07-23T12:09:28.921Z,23.42
2017-07-23T12:10:30.170Z,23.5
2017-07-23T12:11:31.416Z,23.72
2017-07-23T12:12:32.761Z,23.86
2017-07-23T12:13:34.034Z,23.95
2017-07-23T12:14:35.277Z,24.14
2017-07-23T12:15:36.549Z,24.42
2017-07-23T12:16:37.792Z,24.73
2017-07-23T12:17:39.029Z,24.83
2017-07-23T12:18:40.271Z,24.95
2017-07-23T12:19:41.608Z,25.01
2017-07-23T12:20:42.843Z,25.01
2017-07-23T12:21:44.095Z,24.94
2017-07-23T12:22:45.360Z,25.09
2017-07-23T12:23:46.677Z,25.07
2017-07-23T12:24:47.977Z,25.02
2017-07-23T12:25:49.230Z,25.02
2017-07-23T12:26:50.491Z,24.85
2017-07-23T12:27:51.732Z,24.53
2017-07-23T12:28:52.980Z,24.31
2017-07-23T12:29:54.232Z,24.14
2017-07-23T12:30:55.489Z,24.02
2017-07-23T12:31:56.758Z,24.04
2017-07-23T12:32:58.031Z,23.97
2017-07-23T12:33:59.286Z,23.86
2017-07-23T12:35:00.637Z,23.86
2017-07-23T12:36:01.880Z,23.79
2017-07-23T12:37:03.131Z,23.79
2017-07-23T12:38:04.420Z,23.75
2017-07-23T12:39:05.671Z,23.71
2017-07-23T12:40:06.992Z,23.7
2017-07-23T12:41:08.235Z,23.68
2017-07-23T12:42:09.478Z,23.67
2017-07-23T12:43:10.727Z,23.6
2017-07-23T12:44:11.982Z,23.64
2017-07-23T12:45:13.356Z,23.47
2017-07-23T12:46:14.661Z,23.42
2017-07-23T12:47:15.901Z,23.42
2017-07-23T12:48:17.146Z,23.53
2017-07-23T12:49:18.417Z,23.55
2017-07-23T12:50:19.648Z,23.65
2017-07-23T12:51:20.904Z,23.62
2017-07-23T12:52:22.228Z,23.62
2017-07-23T12:53:23.483Z,23.61
2017-07-23T12:54:24.732Z,23.76
2017-07-23T12:55:25.982Z,23.67
2017-07-23T12:56:27.226Z,23.71
2017-07-23T12:57:28.581Z,23.58
2017-07-23T12:58:29.835Z,23.5
2017-07-23T12:59:31.081Z,23.53
2017-07-23T13:00:32.357Z,23.55
2017-07-23T13:01:33.602Z,23.5
2017-07-23T13:02:34.919Z,23.6
2017-07-23T13:03:36.228Z,23.64
2017-07-23T13:04:37.603Z,23.7
2017-07-23T13:05:38.739Z,23.76
2017-07-23T13:06:39.977Z,23.64
2017-07-23T13:07:41.221Z,23.76
2017-07-23T13:08:42.563Z,23.61
2017-07-23T13:09:43.824Z,23.61
2017-07-23T13:10:45.073Z,23.61
2017-07-23T13:11:46.315Z,23.57